createdAt,value
2023-05-15T00:00:56.815Z,1010.78
2023-05-15T00:20:57.110Z,1010.67
2023-05-15T00:30:57.284Z,1010.76
2023-05-15T00:40:57.498Z,1010.67
2023-05-15T00:50:57.719Z,1010.59
2023-05-15T01:00:57.906Z,1010.51
2023-05-15T01:10:58.032Z,1010.52
2023-05-15T01:20:58.229Z,1010.59
2023-05-15T01:30:58.414Z,1010.60
2023-05-15T01:40:58.613Z,1010.60
2023-05-15T01:50:58.765Z,1010.62
2023-05-15T02:00:58.961Z,1010.64
2023-05-15T02:10:59.174Z,1010.59
2023-05-15T02:20:59.325Z,1010.52
2023-05-15T02:30:59.495Z,1010.54
2023-05-15T02:40:59.684Z,1010.44
2023-05-15T02:50:59.954Z,1010.50
2023-05-15T03:00:59.970Z,1010.47
2023-05-15T03:11:00.151Z,1010.44
2023-05-15T03:21:00.294Z,1010.41
2023-05-15T03:31:00.509Z,1010.41
2023-05-15T03:41:00.673Z,1010.51
2023-05-15T03:51:00.819Z,1010.47
2023-05-15T04:01:00.977Z,1010.52
2023-05-15T04:11:01.142Z,1010.54
2023-05-15T04:21:01.333Z,1010.47
2023-05-15T04:31:01.497Z,1010.41
2023-05-15T04:41:01.678Z,1010.45
2023-05-15T04:51:01.821Z,1010.55
2023-05-15T05:01:03.884Z,1010.70
2023-05-15T05:11:02.194Z,1010.76
2023-05-15T05:21:02.349Z,1010.81
2023-05-15T05:31:02.548Z,1010.88
2023-05-15T05:41:02.744Z,1010.92
2023-05-15T05:51:02.952Z,1010.90
2023-05-15T06:01:03.081Z,1010.88
2023-05-15T06:11:03.254Z,1010.88
2023-05-15T06:21:03.451Z,1010.93
2023-05-15T06:31:03.719Z,1010.89
2023-05-15T06:41:03.709Z,1010.92
2023-05-15T06:51:03.857Z,1011.13
2023-05-15T07:01:04.044Z,1011.09
2023-05-15T07:11:04.210Z,1010.96
2023-05-15T07:21:04.358Z,1011.07
2023-05-15T07:31:04.537Z,1011.12
2023-05-15T07:41:04.668Z,1011.17
2023-05-15T07:51:04.827Z,1011.22
2023-05-15T08:01:04.986Z,1011.20
2023-05-15T08:11:05.245Z,1011.26
2023-05-15T08:21:05.261Z,1011.20
2023-05-15T08:31:05.470Z,1011.21
2023-05-15T08:41:05.621Z,1011.10
2023-05-15T08:51:05.793Z,1010.98
2023-05-15T09:01:05.969Z,1010.97
2023-05-15T09:11:06.146Z,1011.00
2023-05-15T09:21:06.317Z,1010.96
2023-05-15T09:31:06.512Z,1010.96
2023-05-15T09:41:06.694Z,1010.94
2023-05-15T09:51:06.982Z,1010.82
2023-05-15T10:01:07.075Z,1010.94
2023-05-15T10:11:07.014Z,1010.90
2023-05-15T10:21:07.178Z,1010.79
2023-05-15T10:31:07.370Z,1010.72
2023-05-15T10:41:17.346Z,1010.68
2023-05-15T10:51:10.637Z,1010.60
2023-05-15T11:01:07.903Z,1010.49
2023-05-15T11:11:08.030Z,1010.43
2023-05-15T11:21:08.309Z,1010.33
2023-05-15T11:31:08.536Z,1010.33
2023-05-15T11:41:08.655Z,1010.17
2023-05-15T11:51:08.847Z,1010.14
2023-05-15T12:01:10.319Z,1010.04
2023-05-15T12:11:09.137Z,1009.91
2023-05-15T12:21:09.316Z,1009.78
2023-05-15T12:31:09.493Z,1009.77
2023-05-15T12:41:09.738Z,1009.73
2023-05-15T12:51:09.941Z,1009.60
2023-05-15T13:01:10.122Z,1009.65
2023-05-15T13:11:10.309Z,1009.64
2023-05-15T13:21:10.483Z,1009.47
2023-05-15T13:31:10.812Z,1009.54
2023-05-15T13:41:10.793Z,1009.46
2023-05-15T13:51:11.011Z,1009.39
2023-05-15T14:01:11.357Z,1009.32
2023-05-15T14:11:11.319Z,1009.32
2023-05-15T14:21:11.601Z,1009.29
2023-05-15T14:31:11.746Z,1009.37
2023-05-15T14:41:11.930Z,1009.42
2023-05-15T14:51:12.113Z,1009.42
2023-05-15T15:01:12.330Z,1009.39
2023-05-15T15:11:12.537Z,1009.37
2023-05-15T15:21:12.694Z,1009.39
2023-05-15T15:31:12.899Z,1009.57
2023-05-15T15:41:13.063Z,1009.74
2023-05-15T15:51:13.280Z,1009.93
2023-05-15T16:01:13.497Z,1010.04
2023-05-15T16:11:13.699Z,1009.97
2023-05-15T16:21:14.103Z,1009.82
2023-05-15T16:31:14.522Z,1009.72
2023-05-15T16:41:14.699Z,1009.73
2023-05-15T16:51:14.976Z,1009.67
2023-05-15T17:01:15.213Z,1009.77
2023-05-15T17:11:15.449Z,1009.83
2023-05-15T17:21:15.541Z,1009.87
2023-05-15T17:31:15.733Z,1009.95
2023-05-15T17:41:15.828Z,1010.04
2023-05-15T17:51:15.948Z,1010.09
2023-05-15T18:01:16.109Z,1010.19
2023-05-15T18:11:22.315Z,1010.26
2023-05-15T18:21:17.422Z,1010.37
2023-05-15T18:31:16.601Z,1010.40
2023-05-15T18:41:16.719Z,1010.52
2023-05-15T18:51:16.820Z,1010.58
2023-05-15T19:01:16.991Z,1010.72
2023-05-15T19:11:17.994Z,1010.69
2023-05-15T19:21:17.313Z,1010.79
2023-05-15T19:31:30.803Z,1010.85
2023-05-15T19:41:18.529Z,1010.85
2023-05-15T19:51:17.603Z,1010.89
2023-05-15T20:01:17.740Z,1011.02
2023-05-15T20:11:17.817Z,1010.98
2023-05-15T20:21:17.934Z,1010.96
2023-05-15T20:31:18.219Z,1010.92
2023-05-15T20:41:18.232Z,1010.93
2023-05-15T20:51:18.548Z,1010.87
2023-05-15T21:01:18.321Z,1010.83
2023-05-15T21:11:18.492Z,1010.78
2023-05-15T21:21:18.836Z,1010.76
2023-05-15T21:31:18.874Z,1010.74
2023-05-15T21:41:19.067Z,1010.67
2023-05-15T21:51:19.234Z,1010.73
2023-05-15T22:01:19.431Z,1010.71
2023-05-15T22:11:19.588Z,1010.73
2023-05-15T22:21:19.780Z,1010.77
2023-05-15T22:31:19.997Z,1010.84
2023-05-15T22:41:20.165Z,1010.85
2023-05-15T22:51:20.365Z,1010.86
2023-05-15T23:01:20.560Z,1010.76
2023-05-15T23:11:20.730Z,1010.84
2023-05-15T23:21:20.912Z,1010.82
2023-05-15T23:31:21.139Z,1010.78
2023-05-15T23:41:21.343Z,1010.69
2023-05-15T23:51:21.511Z,1010.64
